sensor_id;sensor_type;location;lat;lon;timestamp;P1;durP1;ratioP1;P2;durP2;ratioP2
71763;SDS011;59602;52.142;5.408;2023-03-23T00:00:37;4.13;;;2.30;;
71763;SDS011;59602;52.142;5.408;2023-03-23T00:03:02;4.43;;;2.00;;
71763;SDS011;59602;52.142;5.408;2023-03-23T00:05:28;3.43;;;1.70;;
71763;SDS011;59602;52.142;5.408;2023-03-23T00:07:54;6.55;;;2.30;;
71763;SDS011;59602;52.142;5.408;2023-03-23T00:10:20;5.37;;;1.87;;
71763;SDS011;59602;52.142;5.408;2023-03-23T00:12:46;5.60;;;2.03;;
71763;SDS011;59602;52.142;5.408;2023-03-23T00:15:14;5.15;;;1.98;;
71763;SDS011;59602;52.142;5.408;2023-03-23T00:17:41;4.35;;;1.70;;
71763;SDS011;59602;52.142;5.408;2023-03-23T00:20:08;4.60;;;1.77;;
71763;SDS011;59602;52.142;5.408;2023-03-23T00:22:37;6.55;;;2.03;;
71763;SDS011;59602;52.142;5.408;2023-03-23T00:25:06;4.30;;;1.83;;
71763;SDS011;59602;52.142;5.408;2023-03-23T00:27:33;4.28;;;1.50;;
71763;SDS011;59602;52.142;5.408;2023-03-23T00:29:59;5.47;;;1.90;;
71763;SDS011;59602;52.142;5.408;2023-03-23T00:32:25;6.97;;;2.00;;
71763;SDS011;59602;52.142;5.408;2023-03-23T00:34:52;4.20;;;1.23;;
71763;SDS011;59602;52.142;5.408;2023-03-23T00:37:18;5.63;;;1.85;;
71763;SDS011;59602;52.142;5.408;2023-03-23T00:39:44;5.83;;;1.60;;
71763;SDS011;59602;52.142;5.408;2023-03-23T00:42:12;4.55;;;1.80;;
71763;SDS011;59602;52.142;5.408;2023-03-23T00:44:40;4.30;;;1.30;;
71763;SDS011;59602;52.142;5.408;2023-03-23T00:47:07;4.93;;;1.55;;
71763;SDS011;59602;52.142;5.408;2023-03-23T00:49:34;2.45;;;1.23;;
71763;SDS011;59602;52.142;5.408;2023-03-23T00:52:00;3.60;;;1.13;;
71763;SDS011;59602;52.142;5.408;2023-03-23T00:54:26;3.53;;;1.60;;
71763;SDS011;59602;52.142;5.408;2023-03-23T00:56:52;2.88;;;0.95;;
71763;SDS011;59602;52.142;5.408;2023-03-23T00:59:18;4.72;;;1.27;;
71763;SDS011;59602;52.142;5.408;2023-03-23T01:01:44;5.22;;;1.08;;
71763;SDS011;59602;52.142;5.408;2023-03-23T01:04:10;2.67;;;1.20;;
71763;SDS011;59602;52.142;5.408;2023-03-23T01:06:38;4.38;;;1.17;;
71763;SDS011;59602;52.142;5.408;2023-03-23T01:09:06;4.97;;;1.13;;
71763;SDS011;59602;52.142;5.408;2023-03-23T01:11:34;3.70;;;1.15;;
71763;SDS011;59602;52.142;5.408;2023-03-23T01:14:00;4.32;;;1.42;;
71763;SDS011;59602;52.142;5.408;2023-03-23T01:16:39;3.13;;;0.87;;
71763;SDS011;59602;52.142;5.408;2023-03-23T01:19:05;3.47;;;1.02;;
71763;SDS011;59602;52.142;5.408;2023-03-23T01:21:31;2.70;;;0.80;;
71763;SDS011;59602;52.142;5.408;2023-03-23T01:23:56;5.03;;;1.10;;
71763;SDS011;59602;52.142;5.408;2023-03-23T01:26:23;4.20;;;1.25;;
71763;SDS011;59602;52.142;5.408;2023-03-23T01:28:51;2.78;;;0.90;;
71763;SDS011;59602;52.142;5.408;2023-03-23T01:31:19;3.55;;;1.35;;
71763;SDS011;59602;52.142;5.408;2023-03-23T01:33:47;4.53;;;0.90;;
71763;SDS011;59602;52.142;5.408;2023-03-23T01:36:19;3.80;;;1.00;;
71763;SDS011;59602;52.142;5.408;2023-03-23T01:38:48;4.18;;;1.05;;
71763;SDS011;59602;52.142;5.408;2023-03-23T01:41:15;3.53;;;0.93;;
71763;SDS011;59602;52.142;5.408;2023-03-23T01:44:02;3.30;;;0.90;;
71763;SDS011;59602;52.142;5.408;2023-03-23T01:46:31;4.00;;;1.00;;
71763;SDS011;59602;52.142;5.408;2023-03-23T01:48:59;3.67;;;1.10;;
71763;SDS011;59602;52.142;5.408;2023-03-23T01:51:33;2.75;;;0.80;;
71763;SDS011;59602;52.142;5.408;2023-03-23T01:54:04;1.77;;;0.75;;
71763;SDS011;59602;52.142;5.408;2023-03-23T01:56:32;6.18;;;1.20;;
71763;SDS011;59602;52.142;5.408;2023-03-23T01:59:06;2.70;;;1.10;;
71763;SDS011;59602;52.142;5.408;2023-03-23T02:01:34;2.80;;;1.20;;
71763;SDS011;59602;52.142;5.408;2023-03-23T02:04:03;2.70;;;1.00;;
71763;SDS011;59602;52.142;5.408;2023-03-23T02:06:30;2.83;;;0.60;;
71763;SDS011;59602;52.142;5.408;2023-03-23T02:08:56;3.13;;;0.90;;
71763;SDS011;59602;52.142;5.408;2023-03-23T02:11:22;4.03;;;0.83;;
71763;SDS011;59602;52.142;5.408;2023-03-23T02:13:48;2.55;;;0.88;;
71763;SDS011;59602;52.142;5.408;2023-03-23T02:16:21;3.47;;;0.90;;
71763;SDS011;59602;52.142;5.408;2023-03-23T02:21:33;4.43;;;1.00;;
71763;SDS011;59602;52.142;5.408;2023-03-23T02:27:02;2.50;;;1.00;;
71763;SDS011;59602;52.142;5.408;2023-03-23T02:29:43;3.92;;;1.00;;
71763;SDS011;59602;52.142;5.408;2023-03-23T02:35:03;3.63;;;0.90;;
71763;SDS011;59602;52.142;5.408;2023-03-23T02:37:37;3.03;;;1.48;;
71763;SDS011;59602;52.142;5.408;2023-03-23T02:40:18;4.57;;;1.40;;
71763;SDS011;59602;52.142;5.408;2023-03-23T02:42:51;3.58;;;1.10;;
71763;SDS011;59602;52.142;5.408;2023-03-23T02:45:19;4.07;;;1.13;;
71763;SDS011;59602;52.142;5.408;2023-03-23T02:47:48;2.90;;;1.00;;
71763;SDS011;59602;52.142;5.408;2023-03-23T02:50:17;3.00;;;1.08;;
71763;SDS011;59602;52.142;5.408;2023-03-23T02:52:46;3.10;;;1.33;;
71763;SDS011;59602;52.142;5.408;2023-03-23T02:55:15;3.33;;;1.15;;
71763;SDS011;59602;52.142;5.408;2023-03-23T02:57:45;3.25;;;1.23;;
71763;SDS011;59602;52.142;5.408;2023-03-23T03:00:12;3.40;;;1.07;;
71763;SDS011;59602;52.142;5.408;2023-03-23T03:02:42;3.10;;;1.27;;
71763;SDS011;59602;52.142;5.408;2023-03-23T03:05:17;4.53;;;1.23;;
71763;SDS011;59602;52.142;5.408;2023-03-23T03:07:58;2.97;;;1.10;;
71763;SDS011;59602;52.142;5.408;2023-03-23T03:13:23;5.13;;;1.03;;
71763;SDS011;59602;52.142;5.408;2023-03-23T03:15:59;3.35;;;0.88;;
71763;SDS011;59602;52.142;5.408;2023-03-23T03:18:34;5.18;;;1.30;;
71763;SDS011;59602;52.142;5.408;2023-03-23T03:21:07;2.47;;;0.82;;
71763;SDS011;59602;52.142;5.408;2023-03-23T03:23:38;4.80;;;1.10;;
71763;SDS011;59602;52.142;5.408;2023-03-23T03:26:10;4.97;;;1.03;;
71763;SDS011;59602;52.142;5.408;2023-03-23T03:28:37;3.20;;;0.93;;
71763;SDS011;59602;52.142;5.408;2023-03-23T03:31:04;3.30;;;1.08;;
71763;SDS011;59602;52.142;5.408;2023-03-23T03:33:32;2.05;;;0.70;;
71763;SDS011;59602;52.142;5.408;2023-03-23T03:35:59;3.67;;;0.82;;
71763;SDS011;59602;52.142;5.408;2023-03-23T03:38:27;4.10;;;0.70;;
71763;SDS011;59602;52.142;5.408;2023-03-23T03:40:53;4.25;;;0.70;;
71763;SDS011;59602;52.142;5.408;2023-03-23T03:43:20;4.00;;;0.98;;
71763;SDS011;59602;52.142;5.408;2023-03-23T03:45:45;3.07;;;0.67;;
71763;SDS011;59602;52.142;5.408;2023-03-23T03:48:11;3.72;;;0.68;;
71763;SDS011;59602;52.142;5.408;2023-03-23T03:50:39;2.10;;;0.65;;
71763;SDS011;59602;52.142;5.408;2023-03-23T03:53:05;3.53;;;0.70;;
71763;SDS011;59602;52.142;5.408;2023-03-23T03:55:31;3.75;;;0.68;;
71763;SDS011;59602;52.142;5.408;2023-03-23T03:58:00;6.50;;;0.80;;
71763;SDS011;59602;52.142;5.408;2023-03-23T04:00:28;4.07;;;0.65;;
71763;SDS011;59602;52.142;5.408;2023-03-23T04:02:53;5.17;;;0.70;;
71763;SDS011;59602;52.142;5.408;2023-03-23T04:05:20;3.35;;;0.60;;
71763;SDS011;59602;52.142;5.408;2023-03-23T04:07:53;3.22;;;0.50;;
71763;SDS011;59602;52.142;5.408;2023-03-23T04:10:19;2.07;;;0.60;;
71763;SDS011;59602;52.142;5.408;2023-03-23T04:12:47;4.00;;;0.50;;
71763;SDS011;59602;52.142;5.408;2023-03-23T04:15:14;3.13;;;0.50;;
71763;SDS011;59602;52.142;5.408;2023-03-23T04:17:40;2.47;;;0.50;;
71763;SDS011;59602;52.142;5.408;2023-03-23T04:20:08;2.65;;;0.50;;
71763;SDS011;59602;52.142;5.408;2023-03-23T04:22:42;6.03;;;0.60;;
71763;SDS011;59602;52.142;5.408;2023-03-23T04:25:15;3.47;;;0.63;;
71763;SDS011;59602;52.142;5.408;2023-03-23T04:27:42;2.30;;;0.50;;
71763;SDS011;59602;52.142;5.408;2023-03-23T04:30:21;2.80;;;0.50;;
71763;SDS011;59602;52.142;5.408;2023-03-23T04:32:48;4.30;;;0.55;;
71763;SDS011;59602;52.142;5.408;2023-03-23T04:35:16;2.42;;;0.47;;
71763;SDS011;59602;52.142;5.408;2023-03-23T04:37:43;2.88;;;0.40;;
71763;SDS011;59602;52.142;5.408;2023-03-23T04:40:10;4.03;;;0.52;;
71763;SDS011;59602;52.142;5.408;2023-03-23T04:42:40;3.63;;;0.50;;
71763;SDS011;59602;52.142;5.408;2023-03-23T04:45:11;5.95;;;0.52;;
71763;SDS011;59602;52.142;5.408;2023-03-23T04:47:40;2.78;;;0.40;;
71763;SDS011;59602;52.142;5.408;2023-03-23T04:50:08;6.38;;;0.43;;
71763;SDS011;59602;52.142;5.408;2023-03-23T04:52:37;4.20;;;0.40;;
71763;SDS011;59602;52.142;5.408;2023-03-23T04:55:05;2.47;;;0.47;;
71763;SDS011;59602;52.142;5.408;2023-03-23T04:57:32;4.03;;;0.30;;
71763;SDS011;59602;52.142;5.408;2023-03-23T05:00:00;4.13;;;0.40;;
71763;SDS011;59602;52.142;5.408;2023-03-23T05:02:30;5.20;;;0.30;;
71763;SDS011;59602;52.142;5.408;2023-03-23T05:04:56;4.83;;;0.40;;
71763;SDS011;59602;52.142;5.408;2023-03-23T05:07:23;4.70;;;0.40;;
71763;SDS011;59602;52.142;5.408;2023-03-23T05:10:07;4.53;;;0.30;;
71763;SDS011;59602;52.142;5.408;2023-03-23T05:12:35;3.83;;;0.40;;
71763;SDS011;59602;52.142;5.408;2023-03-23T05:15:02;3.63;;;0.33;;
71763;SDS011;59602;52.142;5.408;2023-03-23T05:17:28;3.08;;;0.30;;
71763;SDS011;59602;52.142;5.408;2023-03-23T05:19:55;5.32;;;0.35;;
71763;SDS011;59602;52.142;5.408;2023-03-23T05:22:22;8.13;;;0.40;;
71763;SDS011;59602;52.142;5.408;2023-03-23T05:24:49;5.68;;;0.40;;
71763;SDS011;59602;52.142;5.408;2023-03-23T05:27:16;5.47;;;0.80;;
71763;SDS011;59602;52.142;5.408;2023-03-23T05:29:44;6.50;;;0.60;;
71763;SDS011;59602;52.142;5.408;2023-03-23T05:32:13;5.00;;;0.47;;
71763;SDS011;59602;52.142;5.408;2023-03-23T05:34:41;4.60;;;0.32;;
71763;SDS011;59602;52.142;5.408;2023-03-23T05:37:08;3.42;;;0.30;;
71763;SDS011;59602;52.142;5.408;2023-03-23T05:39:35;3.43;;;0.40;;
71763;SDS011;59602;52.142;5.408;2023-03-23T05:42:01;3.60;;;0.30;;
71763;SDS011;59602;52.142;5.408;2023-03-23T05:44:29;6.47;;;0.55;;
71763;SDS011;59602;52.142;5.408;2023-03-23T05:46:55;4.80;;;0.68;;
71763;SDS011;59602;52.142;5.408;2023-03-23T05:49:21;4.10;;;0.40;;
71763;SDS011;59602;52.142;5.408;2023-03-23T05:51:47;5.88;;;0.70;;
71763;SDS011;59602;52.142;5.408;2023-03-23T05:54:15;7.70;;;0.50;;
71763;SDS011;59602;52.142;5.408;2023-03-23T05:56:40;7.80;;;0.40;;
71763;SDS011;59602;52.142;5.408;2023-03-23T05:59:06;5.93;;;0.40;;
71763;SDS011;59602;52.142;5.408;2023-03-23T06:01:33;9.90;;;0.68;;
71763;SDS011;59602;52.142;5.408;2023-03-23T06:03:58;4.97;;;0.47;;
71763;SDS011;59602;52.142;5.408;2023-03-23T06:06:25;6.75;;;0.80;;
71763;SDS011;59602;52.142;5.408;2023-03-23T06:08:51;10.00;;;0.90;;
71763;SDS011;59602;52.142;5.408;2023-03-23T06:11:17;5.05;;;0.65;;
71763;SDS011;59602;52.142;5.408;2023-03-23T06:13:44;5.75;;;0.52;;
71763;SDS011;59602;52.142;5.408;2023-03-23T06:16:10;9.35;;;0.80;;
71763;SDS011;59602;52.142;5.408;2023-03-23T06:18:35;6.47;;;0.70;;
71763;SDS011;59602;52.142;5.408;2023-03-23T06:21:06;6.70;;;0.63;;
71763;SDS011;59602;52.142;5.408;2023-03-23T06:23:33;6.13;;;0.50;;
71763;SDS011;59602;52.142;5.408;2023-03-23T06:26:01;7.88;;;0.60;;
71763;SDS011;59602;52.142;5.408;2023-03-23T06:28:28;6.10;;;0.75;;
71763;SDS011;59602;52.142;5.408;2023-03-23T06:30:54;5.97;;;0.70;;
71763;SDS011;59602;52.142;5.408;2023-03-23T06:33:20;7.65;;;0.90;;
71763;SDS011;59602;52.142;5.408;2023-03-23T06:35:46;8.87;;;0.63;;
71763;SDS011;59602;52.142;5.408;2023-03-23T06:38:11;5.68;;;0.70;;
71763;SDS011;59602;52.142;5.408;2023-03-23T06:40:37;8.18;;;0.88;;
71763;SDS011;59602;52.142;5.408;2023-03-23T06:43:03;5.03;;;0.70;;
71763;SDS011;59602;52.142;5.408;2023-03-23T06:45:29;7.65;;;0.88;;
71763;SDS011;59602;52.142;5.408;2023-03-23T06:47:56;7.80;;;1.00;;
71763;SDS011;59602;52.142;5.408;2023-03-23T06:50:22;6.60;;;1.35;;
71763;SDS011;59602;52.142;5.408;2023-03-23T06:52:48;5.60;;;0.83;;
71763;SDS011;59602;52.142;5.408;2023-03-23T06:55:15;9.70;;;1.10;;
71763;SDS011;59602;52.142;5.408;2023-03-23T06:57:42;9.32;;;1.17;;
71763;SDS011;59602;52.142;5.408;2023-03-23T07:00:09;8.60;;;1.00;;
71763;SDS011;59602;52.142;5.408;2023-03-23T07:02:37;7.73;;;0.80;;
71763;SDS011;59602;52.142;5.408;2023-03-23T07:05:07;4.05;;;0.60;;
71763;SDS011;59602;52.142;5.408;2023-03-23T07:07:34;4.78;;;0.85;;
71763;SDS011;59602;52.142;5.408;2023-03-23T07:10:01;6.53;;;0.80;;
71763;SDS011;59602;52.142;5.408;2023-03-23T07:12:29;4.88;;;0.90;;
71763;SDS011;59602;52.142;5.408;2023-03-23T07:14:54;6.80;;;1.10;;
71763;SDS011;59602;52.142;5.408;2023-03-23T07:17:20;7.65;;;1.50;;
71763;SDS011;59602;52.142;5.408;2023-03-23T07:19:46;6.87;;;1.10;;
71763;SDS011;59602;52.142;5.408;2023-03-23T07:24:39;5.20;;;0.73;;
71763;SDS011;59602;52.142;5.408;2023-03-23T07:27:33;5.97;;;0.82;;
71763;SDS011;59602;52.142;5.408;2023-03-23T07:30:10;10.23;;;1.10;;
71763;SDS011;59602;52.142;5.408;2023-03-23T07:33:03;4.00;;;1.00;;
71763;SDS011;59602;52.142;5.408;2023-03-23T07:35:35;8.47;;;0.80;;
71763;SDS011;59602;52.142;5.408;2023-03-23T07:38:04;7.55;;;0.70;;
71763;SDS011;59602;52.142;5.408;2023-03-23T07:40:36;6.72;;;0.45;;
71763;SDS011;59602;52.142;5.408;2023-03-23T07:43:05;8.45;;;0.77;;
71763;SDS011;59602;52.142;5.408;2023-03-23T07:45:32;7.85;;;0.70;;
71763;SDS011;59602;52.142;5.408;2023-03-23T07:48:03;6.50;;;0.53;;
71763;SDS011;59602;52.142;5.408;2023-03-23T07:50:28;5.65;;;0.70;;
71763;SDS011;59602;52.142;5.408;2023-03-23T07:52:55;6.28;;;0.43;;
71763;SDS011;59602;52.142;5.408;2023-03-23T07:55:23;3.20;;;0.43;;
71763;SDS011;59602;52.142;5.408;2023-03-23T07:57:53;9.80;;;0.88;;
71763;SDS011;59602;52.142;5.408;2023-03-23T08:00:20;6.93;;;0.60;;
71763;SDS011;59602;52.142;5.408;2023-03-23T08:02:49;5.25;;;0.45;;
71763;SDS011;59602;52.142;5.408;2023-03-23T08:05:17;4.70;;;0.70;;
71763;SDS011;59602;52.142;5.408;2023-03-23T08:07:44;5.05;;;0.70;;
71763;SDS011;59602;52.142;5.408;2023-03-23T08:10:11;6.43;;;0.50;;
71763;SDS011;59602;52.142;5.408;2023-03-23T08:12:39;5.63;;;0.50;;
71763;SDS011;59602;52.142;5.408;2023-03-23T08:15:08;4.60;;;0.73;;
71763;SDS011;59602;52.142;5.408;2023-03-23T08:17:37;7.18;;;0.77;;
71763;SDS011;59602;52.142;5.408;2023-03-23T08:20:05;5.60;;;1.00;;
71763;SDS011;59602;52.142;5.408;2023-03-23T08:22:35;5.90;;;0.80;;
71763;SDS011;59602;52.142;5.408;2023-03-23T08:25:02;3.17;;;0.73;;
71763;SDS011;59602;52.142;5.408;2023-03-23T08:27:28;5.25;;;0.60;;
71763;SDS011;59602;52.142;5.408;2023-03-23T08:29:54;2.77;;;0.50;;
71763;SDS011;59602;52.142;5.408;2023-03-23T08:32:20;7.63;;;0.40;;
71763;SDS011;59602;52.142;5.408;2023-03-23T08:34:46;5.95;;;0.70;;
71763;SDS011;59602;52.142;5.408;2023-03-23T08:37:11;5.97;;;0.73;;
71763;SDS011;59602;52.142;5.408;2023-03-23T08:39:37;7.97;;;0.50;;
71763;SDS011;59602;52.142;5.408;2023-03-23T08:42:02;4.93;;;0.93;;
71763;SDS011;59602;52.142;5.408;2023-03-23T08:44:28;4.43;;;0.68;;
71763;SDS011;59602;52.142;5.408;2023-03-23T08:46:54;10.00;;;0.70;;
71763;SDS011;59602;52.142;5.408;2023-03-23T08:49:22;5.47;;;0.75;;
71763;SDS011;59602;52.142;5.408;2023-03-23T08:51:49;5.25;;;0.55;;
71763;SDS011;59602;52.142;5.408;2023-03-23T08:54:14;3.37;;;0.47;;
71763;SDS011;59602;52.142;5.408;2023-03-23T08:56:42;5.78;;;0.60;;
71763;SDS011;59602;52.142;5.408;2023-03-23T08:59:08;8.00;;;0.95;;
71763;SDS011;59602;52.142;5.408;2023-03-23T09:01:34;3.70;;;0.70;;
71763;SDS011;59602;52.142;5.408;2023-03-23T09:04:00;5.40;;;1.60;;
71763;SDS011;59602;52.142;5.408;2023-03-23T09:06:25;7.47;;;0.60;;
71763;SDS011;59602;52.142;5.408;2023-03-23T09:08:53;3.53;;;0.50;;
71763;SDS011;59602;52.142;5.408;2023-03-23T09:11:20;5.38;;;0.68;;
71763;SDS011;59602;52.142;5.408;2023-03-23T09:13:46;5.20;;;0.70;;
71763;SDS011;59602;52.142;5.408;2023-03-23T09:16:13;7.38;;;1.02;;
71763;SDS011;59602;52.142;5.408;2023-03-23T09:18:39;5.25;;;0.70;;
71763;SDS011;59602;52.142;5.408;2023-03-23T09:21:05;4.97;;;0.47;;
71763;SDS011;59602;52.142;5.408;2023-03-23T09:23:32;4.37;;;0.60;;
71763;SDS011;59602;52.142;5.408;2023-03-23T09:25:59;7.43;;;0.70;;
71763;SDS011;59602;52.142;5.408;2023-03-23T09:28:26;5.20;;;0.70;;
71763;SDS011;59602;52.142;5.408;2023-03-23T09:30:53;6.03;;;0.80;;
71763;SDS011;59602;52.142;5.408;2023-03-23T09:33:22;7.43;;;0.90;;
71763;SDS011;59602;52.142;5.408;2023-03-23T09:35:49;4.90;;;0.80;;
71763;SDS011;59602;52.142;5.408;2023-03-23T09:38:14;4.15;;;0.57;;
71763;SDS011;59602;52.142;5.408;2023-03-23T09:40:47;7.80;;;0.70;;
71763;SDS011;59602;52.142;5.408;2023-03-23T09:48:26;7.40;;;0.82;;
71763;SDS011;59602;52.142;5.408;2023-03-23T09:51:15;7.20;;;0.80;;
71763;SDS011;59602;52.142;5.408;2023-03-23T09:53:44;7.57;;;0.70;;
71763;SDS011;59602;52.142;5.408;2023-03-23T09:56:15;6.75;;;0.70;;
71763;SDS011;59602;52.142;5.408;2023-03-23T09:58:45;7.53;;;0.77;;
71763;SDS011;59602;52.142;5.408;2023-03-23T10:01:39;7.47;;;0.65;;
71763;SDS011;59602;52.142;5.408;2023-03-23T10:04:17;7.97;;;0.90;;
71763;SDS011;59602;52.142;5.408;2023-03-23T10:06:50;5.70;;;0.65;;
71763;SDS011;59602;52.142;5.408;2023-03-23T10:09:27;5.18;;;0.52;;
71763;SDS011;59602;52.142;5.408;2023-03-23T10:11:57;7.00;;;0.47;;
71763;SDS011;59602;52.142;5.408;2023-03-23T10:15:03;7.55;;;0.65;;
71763;SDS011;59602;52.142;5.408;2023-03-23T10:17:45;7.43;;;0.50;;
71763;SDS011;59602;52.142;5.408;2023-03-23T10:20:19;8.32;;;0.77;;
71763;SDS011;59602;52.142;5.408;2023-03-23T10:23:00;8.48;;;0.50;;
71763;SDS011;59602;52.142;5.408;2023-03-23T10:25:41;4.60;;;0.73;;
71763;SDS011;59602;52.142;5.408;2023-03-23T10:28:35;7.00;;;0.50;;
71763;SDS011;59602;52.142;5.408;2023-03-23T10:31:07;3.50;;;0.70;;
71763;SDS011;59602;52.142;5.408;2023-03-23T10:36:18;7.07;;;0.40;;
71763;SDS011;59602;52.142;5.408;2023-03-23T10:39:00;5.30;;;0.30;;
71763;SDS011;59602;52.142;5.408;2023-03-23T10:41:39;5.20;;;0.63;;
71763;SDS011;59602;52.142;5.408;2023-03-23T10:44:56;5.80;;;0.57;;
71763;SDS011;59602;52.142;5.408;2023-03-23T10:47:03;7.90;;;0.40;;
71763;SDS011;59602;52.142;5.408;2023-03-23T10:49:44;8.43;;;0.52;;
71763;SDS011;59602;52.142;5.408;2023-03-23T10:52:24;8.93;;;0.73;;
71763;SDS011;59602;52.142;5.408;2023-03-23T10:54:57;7.75;;;0.68;;
71763;SDS011;59602;52.142;5.408;2023-03-23T10:57:29;3.80;;;0.50;;
71763;SDS011;59602;52.142;5.408;2023-03-23T11:00:00;6.57;;;0.60;;
71763;SDS011;59602;52.142;5.408;2023-03-23T11:02:37;3.78;;;0.30;;
71763;SDS011;59602;52.142;5.408;2023-03-23T11:05:16;4.75;;;0.30;;
71763;SDS011;59602;52.142;5.408;2023-03-23T11:07:48;6.82;;;0.60;;
71763;SDS011;59602;52.142;5.408;2023-03-23T11:21:13;7.82;;;1.00;;
71763;SDS011;59602;52.142;5.408;2023-03-23T11:27:48;6.07;;;0.80;;
71763;SDS011;59602;52.142;5.408;2023-03-23T11:32:48;9.40;;;0.70;;
71763;SDS011;59602;52.142;5.408;2023-03-23T11:35:16;6.15;;;0.60;;
71763;SDS011;59602;52.142;5.408;2023-03-23T11:37:52;8.30;;;0.63;;
71763;SDS011;59602;52.142;5.408;2023-03-23T11:40:21;5.10;;;0.67;;
71763;SDS011;59602;52.142;5.408;2023-03-23T11:50:01;6.53;;;0.57;;
71763;SDS011;59602;52.142;5.408;2023-03-23T11:58:17;6.22;;;0.60;;
71763;SDS011;59602;52.142;5.408;2023-03-23T12:11:17;10.57;;;0.90;;
71763;SDS011;59602;52.142;5.408;2023-03-23T12:16:47;6.68;;;0.38;;
71763;SDS011;59602;52.142;5.408;2023-03-23T12:19:27;7.53;;;1.05;;
71763;SDS011;59602;52.142;5.408;2023-03-23T13:12:23;4.38;;;0.40;;
71763;SDS011;59602;52.142;5.408;2023-03-23T13:15:04;5.93;;;0.38;;
71763;SDS011;59602;52.142;5.408;2023-03-23T13:18:11;4.10;;;0.37;;
71763;SDS011;59602;52.142;5.408;2023-03-23T13:20:48;6.00;;;0.40;;
71763;SDS011;59602;52.142;5.408;2023-03-23T13:23:25;5.45;;;0.50;;
71763;SDS011;59602;52.142;5.408;2023-03-23T13:26:05;2.83;;;0.77;;
71763;SDS011;59602;52.142;5.408;2023-03-23T13:28:35;2.88;;;0.38;;
71763;SDS011;59602;52.142;5.408;2023-03-23T13:31:33;5.37;;;0.60;;
71763;SDS011;59602;52.142;5.408;2023-03-23T13:43:08;3.85;;;0.47;;
71763;SDS011;59602;52.142;5.408;2023-03-23T13:45:42;6.37;;;0.40;;
71763;SDS011;59602;52.142;5.408;2023-03-23T13:50:48;4.70;;;0.60;;
71763;SDS011;59602;52.142;5.408;2023-03-23T13:53:43;3.97;;;0.50;;
71763;SDS011;59602;52.142;5.408;2023-03-23T13:56:16;5.93;;;0.40;;
71763;SDS011;59602;52.142;5.408;2023-03-23T13:58:47;2.10;;;0.20;;
71763;SDS011;59602;52.142;5.408;2023-03-23T14:01:18;5.53;;;0.40;;
71763;SDS011;59602;52.142;5.408;2023-03-23T14:03:58;4.30;;;0.50;;
71763;SDS011;59602;52.142;5.408;2023-03-23T14:06:26;4.63;;;0.35;;
71763;SDS011;59602;52.142;5.408;2023-03-23T14:09:03;4.85;;;0.38;;
71763;SDS011;59602;52.142;5.408;2023-03-23T14:11:31;4.27;;;0.40;;
71763;SDS011;59602;52.142;5.408;2023-03-23T14:14:00;3.17;;;0.38;;
71763;SDS011;59602;52.142;5.408;2023-03-23T14:16:42;3.53;;;0.40;;
71763;SDS011;59602;52.142;5.408;2023-03-23T14:19:15;4.22;;;0.70;;
71763;SDS011;59602;52.142;5.408;2023-03-23T14:21:52;3.60;;;0.40;;
71763;SDS011;59602;52.142;5.408;2023-03-23T14:24:20;5.17;;;0.80;;
71763;SDS011;59602;52.142;5.408;2023-03-23T14:26:48;5.72;;;0.60;;
71763;SDS011;59602;52.142;5.408;2023-03-23T14:29:18;3.53;;;0.60;;
71763;SDS011;59602;52.142;5.408;2023-03-23T14:31:48;4.78;;;0.57;;
71763;SDS011;59602;52.142;5.408;2023-03-23T14:34:23;6.22;;;0.60;;
71763;SDS011;59602;52.142;5.408;2023-03-23T14:36:51;2.87;;;0.50;;
71763;SDS011;59602;52.142;5.408;2023-03-23T14:39:20;5.25;;;0.50;;
71763;SDS011;59602;52.142;5.408;2023-03-23T14:41:48;3.97;;;0.50;;
71763;SDS011;59602;52.142;5.408;2023-03-23T14:44:18;3.25;;;0.50;;
71763;SDS011;59602;52.142;5.408;2023-03-23T14:46:50;8.38;;;0.90;;
71763;SDS011;59602;52.142;5.408;2023-03-23T14:49:16;4.20;;;0.50;;
71763;SDS011;59602;52.142;5.408;2023-03-23T14:51:48;7.90;;;0.60;;
71763;SDS011;59602;52.142;5.408;2023-03-23T14:54:20;5.75;;;0.50;;
71763;SDS011;59602;52.142;5.408;2023-03-23T14:56:49;6.40;;;0.50;;
71763;SDS011;59602;52.142;5.408;2023-03-23T14:59:19;3.70;;;0.60;;
71763;SDS011;59602;52.142;5.408;2023-03-23T15:01:46;6.78;;;0.57;;
71763;SDS011;59602;52.142;5.408;2023-03-23T15:06:47;8.25;;;0.73;;
71763;SDS011;59602;52.142;5.408;2023-03-23T15:09:17;5.03;;;0.40;;
71763;SDS011;59602;52.142;5.408;2023-03-23T15:11:51;4.93;;;0.30;;
71763;SDS011;59602;52.142;5.408;2023-03-23T15:14:21;4.55;;;0.40;;
71763;SDS011;59602;52.142;5.408;2023-03-23T15:16:50;7.33;;;0.70;;
71763;SDS011;59602;52.142;5.408;2023-03-23T15:19:20;6.57;;;0.60;;
71763;SDS011;59602;52.142;5.408;2023-03-23T15:24:24;5.97;;;0.50;;
71763;SDS011;59602;52.142;5.408;2023-03-23T15:27:03;6.60;;;0.60;;
71763;SDS011;59602;52.142;5.408;2023-03-23T15:29:48;7.80;;;0.77;;
71763;SDS011;59602;52.142;5.408;2023-03-23T15:35:12;3.90;;;0.38;;
71763;SDS011;59602;52.142;5.408;2023-03-23T15:37:42;4.15;;;0.50;;
71763;SDS011;59602;52.142;5.408;2023-03-23T15:40:20;5.35;;;0.60;;
71763;SDS011;59602;52.142;5.408;2023-03-23T15:42:47;7.53;;;0.43;;
71763;SDS011;59602;52.142;5.408;2023-03-23T15:50:10;4.47;;;0.43;;
71763;SDS011;59602;52.142;5.408;2023-03-23T15:52:42;6.07;;;0.47;;
71763;SDS011;59602;52.142;5.408;2023-03-23T15:55:21;7.93;;;0.43;;
71763;SDS011;59602;52.142;5.408;2023-03-23T15:57:49;5.43;;;0.63;;
71763;SDS011;59602;52.142;5.408;2023-03-23T16:00:18;5.13;;;0.40;;
71763;SDS011;59602;52.142;5.408;2023-03-23T16:02:46;7.67;;;0.57;;
71763;SDS011;59602;52.142;5.408;2023-03-23T16:05:14;5.15;;;0.30;;
71763;SDS011;59602;52.142;5.408;2023-03-23T16:07:41;6.65;;;0.50;;
71763;SDS011;59602;52.142;5.408;2023-03-23T16:10:13;4.53;;;0.40;;
71763;SDS011;59602;52.142;5.408;2023-03-23T16:12:42;6.32;;;0.45;;
71763;SDS011;59602;52.142;5.408;2023-03-23T16:15:11;6.70;;;0.53;;
71763;SDS011;59602;52.142;5.408;2023-03-23T16:17:39;4.95;;;0.77;;
71763;SDS011;59602;52.142;5.408;2023-03-23T16:20:10;5.15;;;0.68;;
71763;SDS011;59602;52.142;5.408;2023-03-23T16:22:46;6.88;;;0.50;;
71763;SDS011;59602;52.142;5.408;2023-03-23T16:25:13;3.58;;;0.50;;
71763;SDS011;59602;52.142;5.408;2023-03-23T16:27:40;5.23;;;0.40;;
71763;SDS011;59602;52.142;5.408;2023-03-23T16:30:22;5.43;;;0.60;;
71763;SDS011;59602;52.142;5.408;2023-03-23T16:32:50;5.05;;;0.73;;
71763;SDS011;59602;52.142;5.408;2023-03-23T16:35:20;4.22;;;0.22;;
71763;SDS011;59602;52.142;5.408;2023-03-23T16:37:48;6.28;;;0.40;;
71763;SDS011;59602;52.142;5.408;2023-03-23T16:40:34;8.50;;;0.50;;
71763;SDS011;59602;52.142;5.408;2023-03-23T16:43:02;5.28;;;0.50;;
71763;SDS011;59602;52.142;5.408;2023-03-23T16:45:35;5.18;;;0.70;;
71763;SDS011;59602;52.142;5.408;2023-03-23T16:48:07;4.63;;;0.47;;
71763;SDS011;59602;52.142;5.408;2023-03-23T16:50:35;6.60;;;0.77;;
71763;SDS011;59602;52.142;5.408;2023-03-23T16:53:03;7.07;;;0.70;;
71763;SDS011;59602;52.142;5.408;2023-03-23T16:55:35;5.15;;;0.45;;
71763;SDS011;59602;52.142;5.408;2023-03-23T16:58:03;5.53;;;0.57;;
71763;SDS011;59602;52.142;5.408;2023-03-23T17:00:43;4.45;;;0.82;;
71763;SDS011;59602;52.142;5.408;2023-03-23T17:03:12;18.10;;;7.32;;
71763;SDS011;59602;52.142;5.408;2023-03-23T17:05:41;19.33;;;8.47;;
71763;SDS011;59602;52.142;5.408;2023-03-23T17:08:10;6.38;;;1.92;;
71763;SDS011;59602;52.142;5.408;2023-03-23T17:10:38;6.68;;;1.00;;
71763;SDS011;59602;52.142;5.408;2023-03-23T17:13:06;3.50;;;0.65;;
71763;SDS011;59602;52.142;5.408;2023-03-23T17:15:35;8.13;;;1.73;;
71763;SDS011;59602;52.142;5.408;2023-03-23T17:18:05;8.50;;;0.70;;
71763;SDS011;59602;52.142;5.408;2023-03-23T17:20:32;7.75;;;1.15;;
71763;SDS011;59602;52.142;5.408;2023-03-23T17:23:00;7.88;;;0.70;;
71763;SDS011;59602;52.142;5.408;2023-03-23T17:25:27;4.93;;;0.68;;